createdAt,value
2018-12-30T00:00:13.426Z,100.00
2018-12-30T00:03:20.170Z,100.00
2018-12-30T00:09:44.008Z,100.00
2018-12-30T00:12:54.465Z,100.00
2018-12-30T00:15:45.933Z,100.00
2018-12-30T00:18:53.335Z,100.00
2018-12-30T00:24:57.972Z,100.00
2018-12-30T00:28:04.374Z,100.00
2018-12-30T00:30:54.854Z,100.00
2018-12-30T00:34:02.103Z,100.00
2018-12-30T00:40:02.426Z,100.00
2018-12-30T00:43:08.450Z,100.00
2018-12-30T00:46:10.126Z,100.00
2018-12-30T00:49:32.936Z,100.00
2018-12-30T00:52:23.809Z,100.00
2018-12-30T00:58:45.109Z,100.00
2018-12-30T01:01:53.087Z,100.00
2018-12-30T01:04:43.923Z,100.00
2018-12-30T01:08:01.244Z,100.00
2018-12-30T01:14:37.659Z,100.00
2018-12-30T01:27:52.551Z,100.00
2018-12-30T01:30:45.870Z,100.00
2018-12-30T01:53:37.605Z,100.00
2018-12-30T01:57:01.054Z,100.00
2018-12-30T02:00:07.124Z,100.00
2018-12-30T02:03:15.798Z,100.00
2018-12-30T02:06:25.219Z,100.00
2018-12-30T02:12:31.460Z,100.00
2018-12-30T02:15:39.118Z,100.00
2018-12-30T02:21:56.905Z,100.00
2018-12-30T02:24:47.952Z,100.00
2018-12-30T02:31:04.254Z,100.00
2018-12-30T08:36:49.070Z,34.92
2018-12-30T08:39:55.396Z,35.70
2018-12-30T08:42:44.972Z,36.82
2018-12-30T08:49:01.615Z,34.17
2018-12-30T08:52:08.381Z,33.69
2018-12-30T08:54:57.905Z,33.71
2018-12-30T08:58:20.767Z,33.30
2018-12-30T09:01:10.584Z,31.96
2018-12-30T09:07:47.489Z,33.13
2018-12-30T09:10:55.279Z,33.88
2018-12-30T09:14:01.660Z,35.74
2018-12-30T09:17:06.357Z,35.83
2018-12-30T09:19:54.892Z,35.60
2018-12-30T09:22:59.520Z,36.13
2018-12-30T09:25:48.782Z,37.85
2018-12-30T09:28:53.791Z,39.02
2018-12-30T09:31:41.762Z,40.50
2018-12-30T09:34:46.565Z,41.71
2018-12-30T09:37:34.770Z,43.13
2018-12-30T09:40:40.530Z,43.24
2018-12-30T09:43:28.338Z,42.55
2018-12-30T09:46:33.364Z,43.35
2018-12-30T09:49:21.370Z,44.25
2018-12-30T09:52:26.110Z,43.05
2018-12-30T09:55:14.436Z,43.69
2018-12-30T09:58:19.514Z,43.29
2018-12-30T10:01:08.788Z,44.49
2018-12-30T10:04:14.471Z,44.19
2018-12-30T10:07:02.246Z,43.94
2018-12-30T10:10:07.142Z,43.54
2018-12-30T10:12:55.577Z,43.83
2018-12-30T10:16:00.593Z,44.77
2018-12-30T10:18:48.280Z,44.58
2018-12-30T10:21:55.925Z,44.95
2018-12-30T10:24:44.072Z,45.29
2018-12-30T10:27:49.597Z,45.17
2018-12-30T10:30:37.798Z,45.88
2018-12-30T10:33:45.091Z,46.16
2018-12-30T10:36:33.506Z,46.08
2018-12-30T10:39:37.914Z,45.86
2018-12-30T10:42:25.773Z,45.20
2018-12-30T10:45:30.541Z,45.04
2018-12-30T10:51:22.898Z,40.77
2018-12-30T10:54:27.757Z,37.73
2018-12-30T10:57:15.685Z,37.69
2018-12-30T11:00:20.471Z,38.30
2018-12-30T11:03:08.344Z,37.91
2018-12-30T11:06:13.123Z,37.66
2018-12-30T11:09:00.867Z,38.37
2018-12-30T11:12:05.874Z,39.12
2018-12-30T11:14:53.397Z,36.89
2018-12-30T11:17:57.775Z,32.10
2018-12-30T11:20:45.734Z,29.30
2018-12-30T11:23:50.502Z,26.88
2018-12-30T11:26:38.428Z,26.64
2018-12-30T11:29:43.123Z,29.20
2018-12-30T11:32:31.206Z,31.90
2018-12-30T11:35:36.108Z,34.45
2018-12-30T11:38:24.280Z,36.63
2018-12-30T11:41:28.907Z,37.75
2018-12-30T11:44:16.815Z,38.21
2018-12-30T11:47:21.718Z,38.46
2018-12-30T11:50:09.771Z,39.14
2018-12-30T11:53:14.802Z,39.23
2018-12-30T11:56:02.752Z,38.43
2018-12-30T11:59:09.046Z,38.58
2018-12-30T12:01:57.359Z,38.48
2018-12-30T12:05:03.441Z,38.49
2018-12-30T12:07:51.413Z,38.83
2018-12-30T12:10:56.164Z,39.38
2018-12-30T12:13:44.164Z,38.92
2018-12-30T12:16:48.654Z,39.60
2018-12-30T12:19:36.761Z,39.28
2018-12-30T12:22:41.459Z,39.78
2018-12-30T12:25:29.614Z,41.14
2018-12-30T12:28:35.574Z,41.65
2018-12-30T12:31:23.705Z,41.67
2018-12-30T12:34:28.253Z,42.32
2018-12-30T12:40:17.407Z,42.14
2018-12-30T12:43:22.323Z,42.95
2018-12-30T12:46:10.341Z,42.76
2018-12-30T12:49:15.171Z,43.15
2018-12-30T12:52:03.226Z,43.41
2018-12-30T12:55:09.387Z,44.23
2018-12-30T12:57:57.331Z,44.44
2018-12-30T13:01:01.792Z,43.99
2018-12-30T13:03:51.388Z,44.13
2018-12-30T13:06:57.281Z,43.96
2018-12-30T13:09:46.381Z,44.02
2018-12-30T13:12:51.895Z,43.66
2018-12-30T13:15:40.083Z,43.60
2018-12-30T13:18:44.486Z,44.05
2018-12-30T13:21:32.594Z,44.49
2018-12-30T13:24:40.060Z,44.95
2018-12-30T13:27:27.385Z,43.94
2018-12-30T13:30:32.183Z,44.21
2018-12-30T13:33:20.287Z,44.35
2018-12-30T13:36:24.897Z,44.34
2018-12-30T13:39:13.114Z,44.45
2018-12-30T13:42:17.756Z,44.83
2018-12-30T13:45:06.355Z,44.41
2018-12-30T13:48:11.046Z,44.25
2018-12-30T13:50:59.155Z,43.30
2018-12-30T13:54:03.736Z,43.97
2018-12-30T13:56:52.037Z,44.06
2018-12-30T13:59:58.270Z,44.12
2018-12-30T14:02:46.108Z,44.48
2018-12-30T14:05:50.634Z,44.99
2018-12-30T14:08:38.773Z,45.55
2018-12-30T14:11:43.952Z,45.77
2018-12-30T14:14:32.000Z,45.73
2018-12-30T14:17:38.135Z,45.99
2018-12-30T14:20:26.305Z,46.12
2018-12-30T14:23:30.804Z,46.44
2018-12-30T14:26:18.618Z,45.78
2018-12-30T14:29:24.497Z,45.87
2018-12-30T14:32:12.313Z,46.24
2018-12-30T14:35:19.860Z,46.71
2018-12-30T14:38:07.696Z,48.22
2018-12-30T14:41:12.426Z,47.94
2018-12-30T14:44:00.603Z,48.28
2018-12-30T14:47:05.780Z,48.55
2018-12-30T14:49:53.787Z,49.52
2018-12-30T14:52:58.307Z,49.78
2018-12-30T14:55:46.294Z,50.30
2018-12-30T14:58:50.871Z,50.59
2018-12-30T15:01:38.793Z,51.06
2018-12-30T15:04:43.657Z,51.28
2018-12-30T15:07:31.432Z,52.46
2018-12-30T15:10:37.259Z,53.67
2018-12-30T15:13:25.590Z,55.05
2018-12-30T15:16:33.452Z,56.83
2018-12-30T15:19:21.693Z,58.65
2018-12-30T15:22:26.105Z,60.38
2018-12-30T15:25:14.247Z,62.05
2018-12-30T15:28:18.991Z,64.22
2018-12-30T15:31:08.209Z,65.92
2018-12-30T15:34:14.060Z,67.10
2018-12-30T15:37:03.296Z,67.30
2018-12-30T15:40:08.899Z,67.99
2018-12-30T15:42:56.705Z,68.79
2018-12-30T15:46:02.552Z,70.18
2018-12-30T15:51:57.989Z,73.02
2018-12-30T15:55:02.410Z,73.61
2018-12-30T15:57:50.338Z,74.37
2018-12-30T16:00:54.906Z,75.44
2018-12-30T16:03:42.739Z,75.96
2018-12-30T16:06:47.199Z,77.25
2018-12-30T16:09:35.148Z,78.06
2018-12-30T16:12:40.070Z,78.41
2018-12-30T16:15:28.007Z,78.94
2018-12-30T16:18:32.455Z,77.08
2018-12-30T16:21:20.538Z,77.55
2018-12-30T16:24:25.663Z,78.11
2018-12-30T16:27:13.838Z,79.13
2018-12-30T16:33:33.067Z,82.96
2018-12-30T16:36:37.398Z,82.53
2018-12-30T16:39:25.265Z,82.01
2018-12-30T16:42:30.421Z,82.65
2018-12-30T16:45:35.003Z,83.05
2018-12-30T16:48:24.383Z,83.71
2018-12-30T16:51:30.619Z,84.25
2018-12-30T16:54:22.894Z,84.14
2018-12-30T16:57:27.598Z,84.10
2018-12-30T17:00:16.857Z,84.37
2018-12-30T17:03:22.691Z,83.68
2018-12-30T17:06:10.886Z,83.33
2018-12-30T17:09:15.676Z,83.16
2018-12-30T17:12:09.623Z,83.60
2018-12-30T17:15:17.642Z,84.18
2018-12-30T17:18:22.098Z,84.58
2018-12-30T17:21:10.299Z,84.88
2018-12-30T17:24:15.208Z,85.11
2018-12-30T17:27:03.362Z,85.22
2018-12-30T17:30:08.202Z,85.53
2018-12-30T17:32:56.359Z,85.83
2018-12-30T17:36:01.110Z,85.28
2018-12-30T17:38:49.263Z,84.96
2018-12-30T17:41:54.019Z,84.22
2018-12-30T17:44:41.911Z,84.70
2018-12-30T17:47:46.353Z,86.33
2018-12-30T17:50:34.288Z,86.16
2018-12-30T17:53:39.896Z,87.22
2018-12-30T17:56:29.293Z,87.33
2018-12-30T17:59:36.795Z,86.71
2018-12-30T18:05:29.580Z,85.05
2018-12-30T18:08:35.553Z,84.21
2018-12-30T18:11:23.572Z,83.45
2018-12-30T18:14:30.838Z,82.23
2018-12-30T18:17:18.989Z,81.57
2018-12-30T18:20:25.076Z,80.58
2018-12-30T18:23:14.263Z,80.29
2018-12-30T18:26:20.312Z,80.45
2018-12-30T18:29:34.143Z,80.56
2018-12-30T18:32:23.655Z,81.43
2018-12-30T18:35:31.339Z,82.25
2018-12-30T18:38:19.535Z,82.92
2018-12-30T18:41:24.666Z,82.78
2018-12-30T18:44:12.504Z,82.91
2018-12-30T18:47:17.205Z,82.81
2018-12-30T18:50:05.533Z,82.97
2018-12-30T18:53:10.299Z,83.12
2018-12-30T18:56:15.325Z,84.01
2018-12-30T18:59:03.315Z,84.18
2018-12-30T19:02:07.751Z,85.35
2018-12-30T19:04:56.793Z,86.26
2018-12-30T19:08:01.571Z,87.47
2018-12-30T19:10:50.842Z,88.66
2018-12-30T19:13:55.651Z,89.51
2018-12-30T19:16:44.495Z,90.19
2018-12-30T19:19:50.464Z,90.91
2018-12-30T19:22:41.259Z,91.53
2018-12-30T19:25:46.014Z,91.62
2018-12-30T19:28:34.171Z,91.46
2018-12-30T19:31:42.530Z,91.87
2018-12-30T19:34:30.625Z,92.03
2018-12-30T19:37:35.066Z,91.92
2018-12-30T19:40:23.302Z,91.25
2018-12-30T19:43:31.161Z,91.01
2018-12-30T19:46:19.232Z,90.63
2018-12-30T19:49:25.255Z,90.26
2018-12-30T19:52:13.382Z,89.99
2018-12-30T19:55:17.962Z,90.33
2018-12-30T19:58:10.362Z,90.54
2018-12-30T20:01:14.982Z,90.84
2018-12-30T20:04:02.883Z,91.33
2018-12-30T20:07:08.897Z,91.93
2018-12-30T20:09:57.327Z,92.15
2018-12-30T20:13:08.748Z,92.48
2018-12-30T20:15:52.198Z,92.18
2018-12-30T20:18:56.927Z,93.00
2018-12-30T20:21:44.813Z,92.85
2018-12-30T20:24:50.899Z,92.62
2018-12-30T20:27:39.017Z,92.43
2018-12-30T20:33:46.377Z,93.02
2018-12-30T20:37:05.679Z,92.64
2018-12-30T20:39:53.817Z,92.69
2018-12-30T20:42:58.709Z,92.95
2018-12-30T20:45:47.094Z,92.66
2018-12-30T20:48:52.854Z,92.53
2018-12-30T20:51:42.140Z,92.14
2018-12-30T20:54:46.805Z,92.30
2018-12-30T20:57:34.621Z,93.15
2018-12-30T21:00:42.288Z,93.07
2018-12-30T21:03:30.561Z,92.53
2018-12-30T21:06:35.140Z,91.97
2018-12-30T21:09:23.091Z,92.01
2018-12-30T21:12:28.020Z,92.03
2018-12-30T21:15:15.888Z,91.48
2018-12-30T21:18:22.337Z,91.35
2018-12-30T21:21:10.257Z,92.04
2018-12-30T21:24:14.622Z,91.20
2018-12-30T21:27:04.051Z,90.95
2018-12-30T21:30:08.504Z,91.08
2018-12-30T21:32:56.553Z,91.37
2018-12-30T21:36:02.617Z,90.49
2018-12-30T21:38:53.615Z,90.34
2018-12-30T21:44:59.259Z,90.44
2018-12-30T21:47:30.561Z,90.30
2018-12-30T21:49:59.043Z,90.21
2018-12-30T21:52:27.658Z,90.26
2018-12-30T21:54:56.308Z,90.17
2018-12-30T21:57:24.979Z,90.34
2018-12-30T21:59:53.613Z,90.34
2018-12-30T22:02:22.298Z,90.50
2018-12-30T22:04:53.822Z,90.09
2018-12-30T22:07:22.451Z,89.87
2018-12-30T22:09:51.069Z,89.98
2018-12-30T22:12:19.710Z,90.08
2018-12-30T22:14:48.304Z,90.51
2018-12-30T22:17:19.947Z,90.91
2018-12-30T22:19:48.552Z,90.93
2018-12-30T22:22:17.113Z,91.15
2018-12-30T22:24:45.683Z,91.67
2018-12-30T22:27:14.371Z,91.77
2018-12-30T22:29:45.736Z,91.17
2018-12-30T22:32:14.276Z,91.24
2018-12-30T22:34:45.909Z,91.44
2018-12-30T22:37:14.505Z,91.23
2018-12-30T22:39:43.125Z,91.34
2018-12-30T22:42:15.578Z,91.50
2018-12-30T22:44:44.142Z,91.82
2018-12-30T22:47:12.707Z,91.80
2018-12-30T22:49:41.374Z,92.10
2018-12-30T22:52:09.924Z,93.19
2018-12-30T22:54:38.493Z,94.19
2018-12-30T22:57:07.112Z,94.76
2018-12-30T22:59:35.615Z,95.35
2018-12-30T23:02:04.245Z,95.63
2018-12-30T23:04:32.847Z,96.93
2018-12-30T23:07:01.523Z,97.44
2018-12-30T23:09:30.019Z,97.99
2018-12-30T23:11:58.572Z,98.67
2018-12-30T23:14:27.189Z,99.48
2018-12-30T23:16:55.821Z,100.00
2018-12-30T23:19:24.427Z,100.00
2018-12-30T23:21:52.916Z,100.00
2018-12-30T23:24:21.599Z,100.00
2018-12-30T23:26:50.277Z,100.00
2018-12-30T23:29:18.893Z,100.00
2018-12-30T23:31:47.514Z,100.00
2018-12-30T23:34:16.120Z,100.00
2018-12-30T23:36:44.686Z,100.00
2018-12-30T23:39:13.250Z,100.00
2018-12-30T23:41:41.837Z,100.00
2018-12-30T23:44:10.514Z,100.00
2018-12-30T23:46:39.053Z,100.00
2018-12-30T23:49:07.597Z,100.00
2018-12-30T23:51:36.276Z,100.00
2018-12-30T23:54:04.819Z,100.00
2018-12-30T23:56:33.296Z,100.00
2018-12-30T23:59:02.077Z,100.00
